createdAt,value
2019-03-28T00:00:43.895Z,2.60
2019-03-28T00:03:14.155Z,1.90
2019-03-28T00:05:44.443Z,2.47
2019-03-28T00:08:14.711Z,1.73
2019-03-28T00:10:44.991Z,2.00
2019-03-28T00:13:15.256Z,2.90
2019-03-28T00:15:45.516Z,1.77
2019-03-28T00:18:15.775Z,1.97
2019-03-28T00:20:46.035Z,1.77
2019-03-28T00:23:41.389Z,1.73
2019-03-28T00:26:11.755Z,1.33
2019-03-28T00:28:42.067Z,1.60
2019-03-28T00:31:12.343Z,1.90
2019-03-28T00:33:42.601Z,2.00
2019-03-28T00:36:17.291Z,1.57
2019-03-28T00:38:56.070Z,1.70
2019-03-28T00:41:26.883Z,1.60
2019-03-28T00:43:57.117Z,2.00
2019-03-28T00:46:27.399Z,2.60
2019-03-28T00:48:57.631Z,1.87
2019-03-28T00:51:27.883Z,1.67
2019-03-28T00:53:59.783Z,2.23
2019-03-28T00:56:38.089Z,1.60
2019-03-28T00:59:01.936Z,1.80
2019-03-28T01:01:32.204Z,1.70
2019-03-28T01:04:02.524Z,2.10
2019-03-28T01:06:33.898Z,1.50
2019-03-28T01:09:06.371Z,1.80
2019-03-28T01:11:37.148Z,2.87
2019-03-28T01:14:08.301Z,1.60
2019-03-28T01:16:39.478Z,1.60
2019-03-28T01:19:11.275Z,1.53
2019-03-28T01:21:41.544Z,1.47
2019-03-28T01:24:11.795Z,2.00
2019-03-28T01:26:42.076Z,2.20
2019-03-28T01:29:12.319Z,1.57
2019-03-28T01:31:42.581Z,2.00
2019-03-28T01:34:12.898Z,2.60
2019-03-28T01:36:43.187Z,1.70
2019-03-28T01:39:13.435Z,1.93
2019-03-28T01:41:43.723Z,1.83
2019-03-28T01:44:13.967Z,1.80
2019-03-28T01:46:44.275Z,1.53
2019-03-28T01:49:16.151Z,1.70
2019-03-28T01:51:46.465Z,1.80
2019-03-28T01:54:16.771Z,1.80
2019-03-28T01:56:47.117Z,1.80
2019-03-28T01:59:17.371Z,1.67
2019-03-28T02:01:49.248Z,2.07
2019-03-28T02:04:19.524Z,1.57
2019-03-28T02:06:49.926Z,1.53
2019-03-28T02:09:20.196Z,2.47
2019-03-28T02:11:50.520Z,1.67
2019-03-28T02:14:20.852Z,1.90
2019-03-28T02:16:51.118Z,2.07
2019-03-28T02:19:21.384Z,2.43
2019-03-28T02:21:51.646Z,3.10
2019-03-28T02:24:21.894Z,1.57
2019-03-28T02:26:52.164Z,1.90
2019-03-28T02:29:22.502Z,1.40
2019-03-28T02:31:52.759Z,2.10
2019-03-28T02:34:23.027Z,1.80
2019-03-28T02:36:53.293Z,1.50
2019-03-28T02:39:24.421Z,1.50
2019-03-28T02:41:55.327Z,1.40
2019-03-28T02:44:25.637Z,1.47
2019-03-28T02:46:55.853Z,1.87
2019-03-28T02:49:26.121Z,1.93
2019-03-28T02:51:56.376Z,1.83
2019-03-28T02:54:26.628Z,1.57
2019-03-28T02:56:56.905Z,2.07
2019-03-28T02:59:27.162Z,1.63
2019-03-28T03:01:57.471Z,1.87
2019-03-28T03:04:27.747Z,1.77
2019-03-28T03:06:58.011Z,2.40
2019-03-28T03:09:28.256Z,1.70
2019-03-28T03:11:58.554Z,1.50
2019-03-28T03:14:28.812Z,2.30
2019-03-28T03:16:59.100Z,1.50
2019-03-28T03:19:29.451Z,1.40
2019-03-28T03:21:59.692Z,1.40
2019-03-28T03:24:29.973Z,1.60
2019-03-28T03:27:00.239Z,1.50
2019-03-28T03:29:30.509Z,2.17
2019-03-28T03:32:00.797Z,2.10
2019-03-28T03:34:32.762Z,1.53
2019-03-28T03:37:03.807Z,1.67
2019-03-28T03:39:34.982Z,1.70
2019-03-28T03:42:05.287Z,1.70
2019-03-28T03:44:35.548Z,1.70
2019-03-28T03:47:05.807Z,1.60
2019-03-28T03:49:36.076Z,1.40
2019-03-28T03:52:06.400Z,1.70
2019-03-28T03:54:36.656Z,1.50
2019-03-28T03:57:06.924Z,2.60
2019-03-28T03:59:37.525Z,1.60
2019-03-28T04:02:10.974Z,1.47
2019-03-28T04:04:41.904Z,1.43
2019-03-28T04:07:12.375Z,2.47
2019-03-28T04:09:42.622Z,1.80
2019-03-28T04:12:12.869Z,1.83
2019-03-28T04:14:43.157Z,1.10
2019-03-28T04:17:13.422Z,1.60
2019-03-28T04:19:44.721Z,2.13
2019-03-28T04:22:14.965Z,1.40
2019-03-28T04:24:45.202Z,2.40
2019-03-28T04:27:15.478Z,1.40
2019-03-28T04:29:45.877Z,1.63
2019-03-28T04:32:16.188Z,1.50
2019-03-28T04:34:46.347Z,1.60
2019-03-28T04:37:16.703Z,1.37
2019-03-28T04:39:46.947Z,1.93
2019-03-28T04:42:17.242Z,1.73
2019-03-28T04:44:47.587Z,1.40
2019-03-28T04:47:17.863Z,1.63
2019-03-28T04:49:48.158Z,1.63
2019-03-28T04:52:19.333Z,1.70
2019-03-28T04:54:51.272Z,1.50
2019-03-28T04:57:21.574Z,1.50
2019-03-28T04:59:51.872Z,1.47
2019-03-28T05:02:22.144Z,2.20
2019-03-28T05:04:52.565Z,1.50
2019-03-28T05:07:22.838Z,1.40
2019-03-28T05:09:53.148Z,1.67
2019-03-28T05:12:23.494Z,1.43
2019-03-28T05:14:53.757Z,1.73
2019-03-28T05:17:24.016Z,1.97
2019-03-28T05:19:54.292Z,1.30
2019-03-28T05:22:26.186Z,2.23
2019-03-28T05:24:56.414Z,1.50
2019-03-28T05:27:26.681Z,2.07
2019-03-28T05:29:56.920Z,2.00
2019-03-28T05:32:27.191Z,2.77
2019-03-28T05:34:57.474Z,1.50
2019-03-28T05:37:28.710Z,1.67
2019-03-28T05:39:58.987Z,1.53
2019-03-28T05:42:29.261Z,2.17
2019-03-28T05:44:59.530Z,1.67
2019-03-28T05:47:29.799Z,1.63
2019-03-28T05:50:00.388Z,1.50
2019-03-28T05:52:30.776Z,1.40
2019-03-28T05:55:01.058Z,1.63
2019-03-28T05:57:31.355Z,1.77
2019-03-28T06:00:03.308Z,1.70
2019-03-28T06:02:33.620Z,1.50
2019-03-28T06:05:03.974Z,1.53
2019-03-28T06:07:36.415Z,2.27
2019-03-28T06:10:07.527Z,2.70
2019-03-28T06:12:37.802Z,1.17
2019-03-28T06:15:08.337Z,1.60
2019-03-28T06:17:38.634Z,1.60
2019-03-28T06:20:09.180Z,1.40
2019-03-28T06:22:39.820Z,1.63
2019-03-28T06:25:10.683Z,2.17
2019-03-28T06:27:40.908Z,1.73
2019-03-28T06:30:11.347Z,1.50
2019-03-28T06:32:43.294Z,1.60
2019-03-28T06:35:13.529Z,1.70
2019-03-28T06:37:43.820Z,2.37
2019-03-28T06:40:15.718Z,2.87
2019-03-28T06:42:46.046Z,2.07
2019-03-28T06:45:16.258Z,2.60
2019-03-28T06:47:46.603Z,1.73
2019-03-28T06:50:16.861Z,2.73
2019-03-28T06:52:47.116Z,1.97
2019-03-28T06:55:17.368Z,1.70
2019-03-28T06:57:49.261Z,2.53
2019-03-28T07:00:19.599Z,2.00
2019-03-28T07:02:49.868Z,2.37
2019-03-28T07:05:20.126Z,1.90
2019-03-28T07:07:50.399Z,2.57
2019-03-28T07:10:20.663Z,1.80
2019-03-28T07:12:50.956Z,2.50
2019-03-28T07:15:22.829Z,1.63
2019-03-28T07:17:53.111Z,2.63
2019-03-28T07:20:23.431Z,3.07
2019-03-28T07:22:53.711Z,2.50
2019-03-28T07:25:25.586Z,2.63
2019-03-28T07:27:56.041Z,3.03
2019-03-28T07:30:27.927Z,1.63
2019-03-28T07:32:58.218Z,2.43
2019-03-28T07:35:28.471Z,3.47
2019-03-28T07:37:58.734Z,2.20
2019-03-28T07:40:28.993Z,2.30
2019-03-28T07:42:59.275Z,3.73
2019-03-28T07:45:29.529Z,2.47
2019-03-28T07:47:59.811Z,3.57
2019-03-28T07:50:32.033Z,2.20
2019-03-28T07:53:01.938Z,2.20
2019-03-28T07:55:32.196Z,3.17
2019-03-28T07:58:02.442Z,2.70
2019-03-28T08:00:32.686Z,2.30
2019-03-28T08:03:02.940Z,2.47
2019-03-28T08:05:33.207Z,3.00
2019-03-28T08:08:03.489Z,3.73
2019-03-28T08:10:33.941Z,3.53
2019-03-28T08:13:04.241Z,2.80
2019-03-28T08:15:34.491Z,2.07
2019-03-28T08:18:04.784Z,2.30
2019-03-28T08:20:35.040Z,2.10
2019-03-28T08:23:05.317Z,2.13
2019-03-28T08:25:35.568Z,2.03
2019-03-28T08:28:05.832Z,2.67
2019-03-28T08:30:37.972Z,2.87
2019-03-28T08:33:09.180Z,2.70
2019-03-28T08:35:39.586Z,2.17
2019-03-28T08:38:10.446Z,3.27
2019-03-28T08:40:42.759Z,1.90
2019-03-28T08:43:13.214Z,3.53
2019-03-28T08:45:43.465Z,1.87
2019-03-28T08:48:13.898Z,1.60
2019-03-28T08:50:44.139Z,2.10
2019-03-28T08:53:14.412Z,2.00
2019-03-28T08:55:44.643Z,2.03
2019-03-28T08:58:14.932Z,1.83
2019-03-28T09:00:52.102Z,1.73
2019-03-28T09:03:17.066Z,1.60
2019-03-28T09:05:47.360Z,2.20
2019-03-28T09:08:17.615Z,1.40
2019-03-28T09:10:47.915Z,3.80
2019-03-28T09:13:18.266Z,4.83
2019-03-28T09:15:48.553Z,3.40
2019-03-28T09:18:18.839Z,20.07
2019-03-28T09:20:49.160Z,8.53
2019-03-28T09:23:19.456Z,7.03
2019-03-28T09:25:49.704Z,16.40
2019-03-28T09:28:20.015Z,24.30
2019-03-28T09:30:50.340Z,22.03
2019-03-28T09:33:20.614Z,22.27
2019-03-28T09:35:50.985Z,33.00
2019-03-28T09:38:21.862Z,32.83
2019-03-28T09:40:52.115Z,51.27
2019-03-28T09:43:22.462Z,28.60
2019-03-28T09:45:52.724Z,24.97
2019-03-28T09:48:24.675Z,30.23
2019-03-28T09:50:54.940Z,45.73
2019-03-28T09:53:25.226Z,53.00
2019-03-28T09:55:55.501Z,38.73
2019-03-28T09:58:25.806Z,46.13
2019-03-28T10:01:02.649Z,43.20
2019-03-28T10:03:28.403Z,27.00
2019-03-28T10:05:58.679Z,34.27
2019-03-28T10:08:28.998Z,32.07
2019-03-28T10:11:00.911Z,34.03
2019-03-28T10:13:31.195Z,33.73
2019-03-28T10:16:01.467Z,22.67
2019-03-28T10:18:31.744Z,24.03
2019-03-28T10:21:02.039Z,31.07
2019-03-28T10:23:32.315Z,25.97
2019-03-28T10:26:02.573Z,37.63
2019-03-28T10:28:32.849Z,34.03
2019-03-28T10:31:15.730Z,28.43
2019-03-28T10:33:34.980Z,25.00
2019-03-28T10:36:05.281Z,30.43
2019-03-28T10:38:35.723Z,34.63
2019-03-28T10:41:06.003Z,21.93
2019-03-28T10:43:36.328Z,22.53
2019-03-28T10:46:06.539Z,20.57
2019-03-28T10:48:36.831Z,14.20
2019-03-28T10:51:07.096Z,19.87
2019-03-28T10:53:37.428Z,18.87
2019-03-28T10:56:20.922Z,25.77
2019-03-28T10:58:39.595Z,19.63
2019-03-28T11:01:09.845Z,21.40
2019-03-28T11:03:40.118Z,27.63
2019-03-28T11:06:10.462Z,12.90
2019-03-28T11:08:40.731Z,18.83
2019-03-28T11:11:28.319Z,11.87
2019-03-28T11:13:58.653Z,11.47
2019-03-28T11:16:29.512Z,19.43
2019-03-28T11:19:00.459Z,12.30
2019-03-28T11:21:34.187Z,25.03
2019-03-28T11:24:03.462Z,14.93
2019-03-28T11:26:33.725Z,21.40
2019-03-28T11:29:04.045Z,14.30
2019-03-28T11:31:45.694Z,19.67
2019-03-28T11:34:06.194Z,18.43
2019-03-28T11:36:36.512Z,14.43
2019-03-28T11:39:08.319Z,14.80
2019-03-28T11:41:38.616Z,21.37
2019-03-28T11:44:11.531Z,12.83
2019-03-28T11:46:42.339Z,20.10
2019-03-28T11:49:12.616Z,14.30
2019-03-28T11:51:42.853Z,12.53
2019-03-28T11:54:13.131Z,11.63
2019-03-28T11:56:43.445Z,12.57
2019-03-28T11:59:13.724Z,15.00
2019-03-28T12:01:59.106Z,11.30
2019-03-28T12:04:17.514Z,6.83
2019-03-28T12:06:49.037Z,8.00
2019-03-28T12:09:19.639Z,16.67
2019-03-28T12:11:52.792Z,9.13
2019-03-28T12:14:21.812Z,8.47
2019-03-28T12:16:52.072Z,11.80
2019-03-28T12:19:22.363Z,12.77
2019-03-28T12:21:52.608Z,7.77
2019-03-28T12:24:22.880Z,9.57
2019-03-28T12:26:53.139Z,10.07
2019-03-28T12:29:23.903Z,8.13
2019-03-28T12:31:55.736Z,6.00
2019-03-28T12:34:26.014Z,9.27
2019-03-28T12:36:56.260Z,6.23
2019-03-28T12:39:26.528Z,10.00
2019-03-28T12:41:56.783Z,12.03
2019-03-28T12:44:28.674Z,6.23
2019-03-28T12:46:58.901Z,12.93
2019-03-28T12:49:29.186Z,8.50
2019-03-28T12:51:59.426Z,6.93
2019-03-28T12:54:29.708Z,5.63
2019-03-28T12:56:59.953Z,13.00
2019-03-28T12:59:31.266Z,9.77
2019-03-28T13:02:02.075Z,8.37
2019-03-28T13:04:33.987Z,7.83
2019-03-28T13:07:04.218Z,11.00
2019-03-28T13:09:35.739Z,6.27
2019-03-28T13:12:07.919Z,6.47
2019-03-28T13:14:38.209Z,8.03
2019-03-28T13:17:08.445Z,12.37
2019-03-28T13:19:38.742Z,7.90
2019-03-28T13:22:08.984Z,7.00
2019-03-28T13:24:39.299Z,5.40
2019-03-28T13:27:09.532Z,16.10
2019-03-28T13:29:39.820Z,3.97
2019-03-28T13:32:10.072Z,5.53
2019-03-28T13:34:40.206Z,9.60
2019-03-28T13:37:10.310Z,9.97
2019-03-28T13:39:40.441Z,12.43
2019-03-28T13:42:10.549Z,8.83
2019-03-28T13:44:40.672Z,5.97
2019-03-28T13:47:10.775Z,5.67
2019-03-28T13:49:40.895Z,5.63
2019-03-28T13:52:10.997Z,6.37
2019-03-28T13:54:41.148Z,4.33
2019-03-28T13:57:11.325Z,6.73
2019-03-28T13:59:41.516Z,5.97
2019-03-28T14:02:11.658Z,4.33
2019-03-28T14:04:41.793Z,7.23
2019-03-28T14:07:11.906Z,3.80
2019-03-28T14:09:42.036Z,6.63
2019-03-28T14:12:13.767Z,7.97
2019-03-28T14:14:43.913Z,8.33
2019-03-28T14:17:14.022Z,6.30
2019-03-28T14:19:44.203Z,6.67
2019-03-28T14:22:14.321Z,4.33
2019-03-28T14:24:44.473Z,3.50
2019-03-28T14:27:14.577Z,8.37
2019-03-28T14:29:44.711Z,7.87
2019-03-28T14:32:14.826Z,8.13
2019-03-28T14:34:44.975Z,11.20
2019-03-28T14:37:17.125Z,7.97
2019-03-28T14:39:49.187Z,4.53
2019-03-28T14:42:19.941Z,5.33
2019-03-28T14:44:50.864Z,5.63
2019-03-28T14:47:21.021Z,4.60
2019-03-28T14:49:51.202Z,5.47
2019-03-28T14:52:21.373Z,7.53
2019-03-28T14:54:51.525Z,6.93
2019-03-28T14:57:21.685Z,4.53
2019-03-28T14:59:51.853Z,3.53
2019-03-28T15:02:21.945Z,4.60
2019-03-28T15:04:52.079Z,3.87
2019-03-28T15:07:22.205Z,4.07
2019-03-28T15:09:52.353Z,7.90
2019-03-28T15:12:24.107Z,11.47
2019-03-28T15:14:54.227Z,7.73
2019-03-28T15:17:24.365Z,3.50
2019-03-28T15:19:54.583Z,3.73
2019-03-28T15:22:24.727Z,6.60
2019-03-28T15:24:54.906Z,3.50
2019-03-28T15:27:25.046Z,5.13
2019-03-28T15:29:56.798Z,5.47
2019-03-28T15:32:26.914Z,3.23
2019-03-28T15:34:57.033Z,5.80
2019-03-28T15:37:27.166Z,4.37
2019-03-28T15:39:57.713Z,3.53
2019-03-28T15:42:28.469Z,3.63
2019-03-28T15:44:58.594Z,5.07
2019-03-28T15:47:28.734Z,6.07
2019-03-28T15:50:00.480Z,15.73
2019-03-28T15:52:31.642Z,4.60
2019-03-28T15:55:03.211Z,4.57
2019-03-28T15:57:33.353Z,7.67
2019-03-28T16:00:03.467Z,5.37
2019-03-28T16:02:35.217Z,7.50
2019-03-28T16:05:05.563Z,4.20
2019-03-28T16:07:35.714Z,6.00
2019-03-28T16:10:07.826Z,3.63
2019-03-28T16:12:37.962Z,3.33
2019-03-28T16:15:08.213Z,5.83
2019-03-28T16:17:38.334Z,2.83
2019-03-28T16:20:08.518Z,5.37
2019-03-28T16:22:39.699Z,4.70
2019-03-28T16:25:09.855Z,6.53
2019-03-28T16:27:39.989Z,4.13
2019-03-28T16:30:10.422Z,2.80
2019-03-28T16:32:40.619Z,4.83
2019-03-28T16:35:10.813Z,4.97
2019-03-28T16:37:40.933Z,3.87
2019-03-28T16:40:11.116Z,5.00
2019-03-28T16:42:41.814Z,3.07
2019-03-28T16:45:12.663Z,6.63
2019-03-28T16:47:42.854Z,3.40
2019-03-28T16:50:14.334Z,2.70
2019-03-28T16:52:44.444Z,3.93
2019-03-28T16:55:25.863Z,4.33
2019-03-28T16:57:46.430Z,3.30
2019-03-28T17:00:16.721Z,2.57
2019-03-28T17:02:46.840Z,3.63
2019-03-28T17:05:16.990Z,5.50
2019-03-28T17:07:47.141Z,5.53
2019-03-28T17:10:42.018Z,4.67
2019-03-28T17:13:12.149Z,3.50
2019-03-28T17:15:42.294Z,3.33
2019-03-28T17:18:12.454Z,4.73
2019-03-28T17:20:43.596Z,5.90
2019-03-28T17:23:13.720Z,5.53
2019-03-28T17:25:43.930Z,5.87
2019-03-28T17:28:14.060Z,3.13
2019-03-28T17:30:44.217Z,2.80
2019-03-28T17:33:17.553Z,3.50
2019-03-28T17:35:46.173Z,4.93
2019-03-28T17:38:16.415Z,4.47
2019-03-28T17:40:46.576Z,3.07
2019-03-28T17:43:16.722Z,4.50
2019-03-28T17:45:46.924Z,3.97
2019-03-28T17:48:17.130Z,3.13
2019-03-28T17:50:47.278Z,3.60
2019-03-28T17:53:17.403Z,3.93
2019-03-28T17:55:47.523Z,4.37
2019-03-28T17:58:17.673Z,4.30
2019-03-28T18:00:49.045Z,5.30
2019-03-28T18:03:30.624Z,4.77
2019-03-28T18:05:58.038Z,2.40
2019-03-28T18:08:22.977Z,5.57
2019-03-28T18:10:53.103Z,3.40
2019-03-28T18:13:23.219Z,3.83
2019-03-28T18:15:53.373Z,3.47
2019-03-28T18:18:24.557Z,1.70
2019-03-28T18:20:55.685Z,5.90
2019-03-28T18:23:25.835Z,2.00
2019-03-28T18:25:55.983Z,3.83
2019-03-28T18:28:26.117Z,4.53
2019-03-28T18:30:56.274Z,2.00
2019-03-28T18:33:26.442Z,2.87
2019-03-28T18:35:56.585Z,4.67
2019-03-28T18:38:26.732Z,4.23
2019-03-28T18:40:56.867Z,5.60
2019-03-28T18:43:26.993Z,4.20
2019-03-28T18:45:57.117Z,2.00
2019-03-28T18:48:34.216Z,3.43
2019-03-28T18:50:59.054Z,2.60
2019-03-28T18:53:29.161Z,5.03
2019-03-28T18:55:59.282Z,3.43
2019-03-28T18:58:29.427Z,4.80
2019-03-28T19:00:59.754Z,5.60
2019-03-28T19:03:29.874Z,3.60
2019-03-28T19:06:00.022Z,2.90
2019-03-28T19:08:30.138Z,3.17
2019-03-28T19:11:01.909Z,5.43
2019-03-28T19:13:32.083Z,3.63
2019-03-28T19:16:02.226Z,3.20
2019-03-28T19:18:32.370Z,3.47
2019-03-28T19:21:02.544Z,4.23
2019-03-28T19:23:32.785Z,2.90
2019-03-28T19:26:03.147Z,5.53
2019-03-28T19:28:33.298Z,4.43
2019-03-28T19:31:04.222Z,4.23
2019-03-28T19:33:38.122Z,3.10
2019-03-28T19:36:07.408Z,2.20
2019-03-28T19:38:37.542Z,3.70
2019-03-28T19:41:07.712Z,2.27
2019-03-28T19:43:37.963Z,2.70
2019-03-28T19:46:08.111Z,4.77
2019-03-28T19:48:38.222Z,2.50
2019-03-28T19:51:08.400Z,4.43
2019-03-28T19:53:38.559Z,3.17
2019-03-28T19:56:08.690Z,2.70
2019-03-28T19:58:38.874Z,3.87
2019-03-28T20:01:10.638Z,2.40
2019-03-28T20:03:40.792Z,4.57
2019-03-28T20:06:21.636Z,3.43
2019-03-28T20:08:42.855Z,6.57
2019-03-28T20:11:13.061Z,4.37
2019-03-28T20:13:43.285Z,4.30
2019-03-28T20:16:13.524Z,5.63
2019-03-28T20:18:43.746Z,4.83
2019-03-28T20:21:13.900Z,7.57
2019-03-28T20:23:44.112Z,7.03
2019-03-28T20:26:14.303Z,4.67
2019-03-28T20:28:44.430Z,3.87
2019-03-28T20:31:14.618Z,4.63
2019-03-28T20:33:46.367Z,4.83
2019-03-28T20:36:36.380Z,6.13
2019-03-28T20:38:53.356Z,5.03
2019-03-28T20:41:20.173Z,4.07
2019-03-28T20:43:50.302Z,4.40
2019-03-28T20:46:20.901Z,5.33
2019-03-28T20:48:51.202Z,3.27
2019-03-28T20:51:24.600Z,5.27
2019-03-28T20:53:55.033Z,4.47
2019-03-28T20:56:25.180Z,4.63
2019-03-28T20:58:55.420Z,4.63
2019-03-28T21:01:25.617Z,4.50
2019-03-28T21:03:55.746Z,3.73
2019-03-28T21:06:25.920Z,4.03
2019-03-28T21:08:56.111Z,7.17
2019-03-28T21:11:29.356Z,3.27
2019-03-28T21:13:58.153Z,3.40
2019-03-28T21:16:28.320Z,4.20
2019-03-28T21:18:58.442Z,3.33
2019-03-28T21:21:28.904Z,3.43
2019-03-28T21:23:59.614Z,2.73
2019-03-28T21:26:29.753Z,3.90
2019-03-28T21:28:59.900Z,3.47
2019-03-28T21:31:30.056Z,2.73
2019-03-28T21:34:00.230Z,3.80
2019-03-28T21:36:30.676Z,3.37
2019-03-28T21:39:02.222Z,5.40
2019-03-28T21:41:34.081Z,4.57
2019-03-28T21:44:04.231Z,2.20
2019-03-28T21:46:34.365Z,4.00
2019-03-28T21:49:04.493Z,4.43
2019-03-28T21:51:34.621Z,5.83
2019-03-28T21:54:05.173Z,2.63
2019-03-28T21:56:35.977Z,2.10
2019-03-28T21:59:06.142Z,4.60
2019-03-28T22:01:36.281Z,3.57
2019-03-28T22:04:06.407Z,2.37
2019-03-28T22:06:42.688Z,4.37
2019-03-28T22:09:08.384Z,2.40
2019-03-28T22:11:40.398Z,2.93
2019-03-28T22:14:10.514Z,6.70
2019-03-28T22:16:40.653Z,2.97
2019-03-28T22:19:10.760Z,3.57
2019-03-28T22:21:40.914Z,3.70
2019-03-28T22:24:11.132Z,4.50
2019-03-28T22:26:41.278Z,3.67
2019-03-28T22:29:11.424Z,3.67
2019-03-28T22:31:41.552Z,2.70
2019-03-28T22:34:11.662Z,3.67
2019-03-28T22:36:56.245Z,2.67
2019-03-28T22:39:14.271Z,4.00
2019-03-28T22:41:44.412Z,2.27
2019-03-28T22:44:14.499Z,7.33
2019-03-28T22:46:46.264Z,3.60
2019-03-28T22:49:16.364Z,3.77
2019-03-28T22:51:48.170Z,2.20
2019-03-28T22:54:18.281Z,3.90
2019-03-28T22:56:48.539Z,3.90
2019-03-28T22:59:20.425Z,2.53
2019-03-28T23:01:50.566Z,2.43
2019-03-28T23:04:20.666Z,1.77
2019-03-28T23:06:50.777Z,2.97
2019-03-28T23:09:20.877Z,3.30
2019-03-28T23:11:52.572Z,5.27
2019-03-28T23:14:22.691Z,4.13
2019-03-28T23:16:52.816Z,6.57
2019-03-28T23:19:22.906Z,2.83
2019-03-28T23:21:53.055Z,4.00
2019-03-28T23:24:23.176Z,1.97
2019-03-28T23:26:53.309Z,2.60
2019-03-28T23:29:23.424Z,3.03
2019-03-28T23:31:53.538Z,2.87
2019-03-28T23:34:23.683Z,2.80
2019-03-28T23:36:53.882Z,2.00
2019-03-28T23:39:24.009Z,4.03
2019-03-28T23:41:54.142Z,1.97
2019-03-28T23:44:25.889Z,3.83
2019-03-28T23:46:57.634Z,2.93
2019-03-28T23:49:27.738Z,2.40
2019-03-28T23:51:57.874Z,2.70
2019-03-28T23:54:27.978Z,4.33
2019-03-28T23:56:58.104Z,2.93
2019-03-28T23:59:28.246Z,2.77
